createdAt,value
2018-08-04T00:02:13.153Z,26.30
2018-08-04T00:07:16.637Z,26.30
2018-08-04T00:12:20.198Z,26.20
2018-08-04T00:17:22.858Z,26.20
2018-08-04T00:22:26.104Z,26.10
2018-08-04T00:27:28.663Z,26.10
2018-08-04T00:32:31.261Z,26.10
2018-08-04T00:37:33.846Z,26.00
2018-08-04T00:42:36.379Z,26.00
2018-08-04T00:47:39.850Z,25.90
2018-08-04T00:52:42.463Z,25.90
2018-08-04T00:57:45.132Z,25.90
2018-08-04T01:02:47.773Z,25.80
2018-08-04T01:07:51.166Z,25.80
2018-08-04T01:12:53.734Z,25.80
2018-08-04T01:17:56.269Z,25.80
2018-08-04T01:22:58.827Z,25.70
2018-08-04T01:28:01.524Z,25.70
2018-08-04T01:33:04.023Z,25.60
2018-08-04T01:38:06.573Z,25.60
2018-08-04T01:43:09.171Z,25.60
2018-08-04T01:48:11.715Z,25.50
2018-08-04T01:53:14.245Z,25.50
2018-08-04T01:58:16.775Z,25.50
2018-08-04T02:03:19.290Z,25.40
2018-08-04T02:08:21.868Z,25.40
2018-08-04T02:13:25.146Z,25.30
2018-08-04T02:18:28.657Z,25.30
2018-08-04T02:23:31.292Z,25.30
2018-08-04T02:28:33.861Z,25.20
2018-08-04T02:33:36.535Z,25.20
2018-08-04T02:38:40.113Z,25.10
2018-08-04T02:43:42.631Z,25.10
2018-08-04T02:48:45.179Z,25.00
2018-08-04T02:53:48.392Z,25.00
2018-08-04T02:58:51.761Z,24.90
2018-08-04T03:03:54.362Z,24.90
2018-08-04T03:08:56.921Z,24.80
2018-08-04T03:13:59.572Z,24.80
2018-08-04T03:19:02.896Z,24.70
2018-08-04T03:24:05.605Z,24.70
2018-08-04T03:29:08.246Z,24.60
2018-08-04T03:34:10.818Z,24.60
2018-08-04T03:39:14.151Z,24.50
2018-08-04T03:44:16.868Z,24.40
2018-08-04T03:49:19.587Z,24.40
2018-08-04T03:54:22.139Z,24.40
2018-08-04T03:59:25.481Z,24.30
2018-08-04T04:04:28.091Z,24.20
2018-08-04T04:09:30.756Z,24.20
2018-08-04T04:14:33.358Z,24.20
2018-08-04T04:19:35.913Z,24.10
2018-08-04T04:24:39.102Z,24.10
2018-08-04T04:29:41.694Z,24.10
2018-08-04T04:34:44.302Z,24.10
2018-08-04T04:39:46.818Z,24.10
2018-08-04T04:44:49.401Z,24.10
2018-08-04T04:49:51.986Z,24.10
2018-08-04T04:54:54.535Z,24.00
2018-08-04T04:59:57.081Z,24.10
2018-08-04T05:04:59.611Z,24.10
2018-08-04T05:10:02.207Z,24.10
2018-08-04T05:15:04.798Z,24.10
2018-08-04T05:20:07.317Z,24.10
2018-08-04T05:25:09.897Z,24.20
2018-08-04T05:30:12.662Z,24.20
2018-08-04T05:35:16.005Z,24.40
2018-08-04T05:40:18.609Z,24.40
2018-08-04T05:45:21.171Z,24.50
2018-08-04T05:50:23.693Z,24.60
2018-08-04T05:55:26.230Z,24.70
2018-08-04T06:00:28.787Z,24.70
2018-08-04T06:05:31.826Z,24.80
2018-08-04T06:10:34.696Z,24.90
2018-08-04T06:15:37.502Z,25.00
2018-08-04T06:20:40.326Z,25.00
2018-08-04T06:25:43.143Z,25.10
2018-08-04T06:30:45.724Z,25.20
2018-08-04T06:35:48.380Z,25.30
2018-08-04T06:40:51.845Z,25.30
2018-08-04T06:45:54.435Z,25.40
2018-08-04T06:50:57.032Z,25.50
2018-08-04T06:55:59.566Z,25.60
2018-08-04T07:01:02.249Z,25.80
2018-08-04T07:06:04.844Z,25.80
2018-08-04T07:11:08.240Z,26.00
2018-08-04T07:16:10.765Z,26.00
2018-08-04T07:21:13.465Z,26.10
2018-08-04T07:26:16.746Z,26.20
2018-08-04T07:36:34.644Z,26.30
2018-08-04T07:41:37.441Z,26.40
2018-08-04T07:46:40.076Z,26.40
2018-08-04T07:51:42.747Z,26.50
2018-08-04T07:56:46.009Z,26.60
2018-08-04T08:01:50.859Z,26.80
2018-08-04T08:06:54.619Z,27.00
2018-08-04T08:11:58.229Z,27.00
2018-08-04T08:17:01.390Z,27.10
2018-08-04T08:22:05.388Z,27.20
2018-08-04T08:27:08.026Z,27.30
2018-08-04T08:32:11.495Z,27.60
2018-08-04T08:37:15.139Z,28.00
2018-08-04T08:42:17.804Z,28.00
2018-08-04T08:47:21.105Z,28.40
2018-08-04T08:52:23.584Z,28.80
2018-08-04T08:57:27.106Z,29.20
2018-08-04T09:02:29.949Z,29.60
2018-08-04T09:07:32.785Z,30.00
2018-08-04T09:12:35.524Z,30.30
2018-08-04T09:17:39.109Z,31.10
2018-08-04T09:27:52.270Z,31.70
2018-08-04T09:32:55.361Z,31.70
2018-08-04T09:37:58.359Z,32.10
2018-08-04T09:43:01.798Z,32.60
2018-08-04T09:48:04.600Z,32.60
2018-08-04T09:53:08.011Z,32.80
2018-08-04T09:58:10.666Z,33.00
2018-08-04T10:03:13.450Z,33.10
2018-08-04T10:08:17.906Z,33.30
2018-08-04T10:13:21.397Z,33.70
2018-08-04T10:18:24.219Z,33.60
2018-08-04T10:23:27.633Z,33.80
2018-08-04T10:28:30.978Z,34.00
2018-08-04T10:33:33.606Z,34.20
2018-08-04T10:38:36.382Z,34.40
2018-08-04T10:43:38.808Z,34.60
2018-08-04T10:48:41.300Z,34.80
2018-08-04T10:53:43.785Z,35.00
2018-08-04T10:58:47.036Z,35.10
2018-08-04T11:03:49.579Z,35.00
2018-08-04T11:08:52.029Z,34.90
2018-08-04T11:13:54.512Z,34.70
2018-08-04T11:18:57.209Z,34.50
2018-08-04T11:24:00.731Z,34.20
2018-08-04T11:29:03.326Z,34.10
2018-08-04T11:34:06.021Z,34.10
2018-08-04T11:39:09.000Z,34.20
2018-08-04T11:44:11.637Z,34.30
2018-08-04T11:49:14.233Z,34.40
2018-08-04T11:54:17.801Z,34.60
2018-08-04T11:59:20.639Z,34.60
2018-08-04T12:04:24.110Z,34.60
2018-08-04T12:09:28.581Z,34.50
2018-08-04T12:14:31.387Z,34.40
2018-08-04T12:19:34.153Z,34.40
2018-08-04T12:24:36.801Z,34.20
2018-08-04T12:29:39.719Z,34.10
2018-08-04T12:34:42.517Z,34.10
2018-08-04T12:39:45.363Z,34.10
2018-08-04T12:44:48.071Z,34.10
2018-08-04T12:49:50.681Z,34.00
2018-08-04T12:54:53.623Z,34.00
2018-08-04T12:59:56.255Z,33.90
2018-08-04T13:04:58.890Z,33.80
2018-08-04T13:10:02.574Z,33.70
2018-08-04T13:15:05.989Z,33.60
2018-08-04T13:20:08.595Z,33.50
2018-08-04T13:25:11.438Z,33.70
2018-08-04T13:30:13.929Z,33.80
2018-08-04T13:35:16.500Z,33.90
2018-08-04T13:40:18.983Z,34.00
2018-08-04T13:45:21.468Z,34.20
2018-08-04T13:50:23.979Z,34.20
2018-08-04T13:55:26.464Z,34.20
2018-08-04T14:00:28.957Z,34.20
2018-08-04T14:05:31.444Z,34.20
2018-08-04T14:10:33.928Z,34.10
2018-08-04T14:15:36.408Z,34.00
2018-08-04T14:20:38.966Z,34.00
2018-08-04T14:25:41.468Z,33.90
2018-08-04T14:30:43.963Z,33.80
2018-08-04T14:35:46.462Z,33.70
2018-08-04T14:40:48.971Z,33.60
2018-08-04T14:45:51.449Z,33.50
2018-08-04T14:50:53.935Z,33.40
2018-08-04T14:55:56.425Z,33.40
2018-08-04T15:00:58.909Z,33.40
2018-08-04T15:06:01.404Z,33.60
2018-08-04T15:11:03.896Z,33.60
2018-08-04T15:16:06.372Z,33.60
2018-08-04T15:21:08.872Z,33.60
2018-08-04T15:26:11.356Z,33.60
2018-08-04T15:31:13.844Z,33.60
2018-08-04T15:36:16.333Z,33.50
2018-08-04T15:41:18.822Z,33.50
2018-08-04T15:46:21.300Z,33.40
2018-08-04T15:51:23.784Z,33.40
2018-08-04T15:56:26.269Z,33.30
2018-08-04T16:01:28.748Z,33.20
2018-08-04T16:06:31.228Z,33.00
2018-08-04T16:11:33.709Z,33.00
2018-08-04T16:16:36.213Z,32.90
2018-08-04T16:21:38.668Z,32.90
2018-08-04T16:26:41.156Z,32.80
2018-08-04T16:31:43.652Z,32.70
2018-08-04T16:36:46.216Z,32.70
2018-08-04T16:41:48.739Z,32.60
2018-08-04T16:46:51.185Z,32.60
2018-08-04T16:51:53.660Z,32.50
2018-08-04T16:56:56.153Z,32.40
2018-08-04T17:01:58.632Z,32.30
2018-08-04T17:07:01.108Z,32.20
2018-08-04T17:12:03.604Z,32.10
2018-08-04T17:17:06.081Z,32.00
2018-08-04T17:22:08.676Z,31.90
2018-08-04T17:27:11.324Z,31.70
2018-08-04T17:32:14.275Z,31.60
2018-08-04T17:37:16.954Z,31.50
2018-08-04T17:42:19.472Z,31.40
2018-08-04T17:47:22.040Z,31.40
2018-08-04T17:52:25.016Z,31.20
2018-08-04T17:57:28.147Z,31.10
2018-08-04T18:02:31.478Z,30.90
2018-08-04T18:07:35.281Z,30.90
2018-08-04T18:12:37.807Z,30.80
2018-08-04T18:17:40.459Z,30.80
2018-08-04T18:22:42.942Z,30.70
2018-08-04T18:27:45.428Z,30.60
2018-08-04T18:32:47.943Z,30.50
2018-08-04T18:37:50.470Z,30.40
2018-08-04T18:42:53.389Z,30.30
2018-08-04T18:47:55.910Z,30.20
2018-08-04T18:52:58.631Z,30.10
2018-08-04T18:58:01.330Z,30.00
2018-08-04T19:03:03.922Z,29.90
2018-08-04T19:08:07.034Z,29.80
2018-08-04T19:13:10.230Z,29.70
2018-08-04T19:18:13.020Z,29.60
2018-08-04T19:23:17.033Z,29.40
2018-08-04T19:28:19.583Z,29.30
2018-08-04T19:33:22.336Z,29.20
2018-08-04T19:38:25.241Z,29.10
2018-08-04T19:43:29.392Z,29.00
2018-08-04T19:48:32.095Z,28.90
2018-08-04T19:53:34.640Z,28.70
2018-08-04T19:58:37.381Z,28.70
2018-08-04T20:03:40.158Z,28.50
2018-08-04T20:08:42.868Z,28.40
2018-08-04T20:13:45.697Z,28.30
2018-08-04T20:21:57.756Z,28.20
2018-08-04T20:27:01.289Z,28.00
2018-08-04T20:32:05.205Z,27.90
2018-08-04T20:37:08.862Z,27.80
2018-08-04T20:42:12.467Z,27.70
2018-08-04T20:47:15.999Z,27.60
2018-08-04T20:52:19.346Z,27.50
2018-08-04T20:57:22.923Z,27.40
2018-08-04T21:02:27.583Z,27.30
2018-08-04T21:07:31.253Z,27.20
2018-08-04T21:17:38.297Z,27.00
2018-08-04T21:22:42.839Z,27.00
2018-08-04T21:27:49.154Z,26.80
2018-08-04T21:32:54.991Z,26.70
2018-08-04T21:38:03.353Z,26.60
2018-08-04T21:43:09.910Z,26.50
2018-08-04T21:48:13.832Z,26.40
2018-08-04T21:53:20.913Z,26.40
2018-08-04T21:58:28.620Z,26.30
2018-08-04T22:03:38.661Z,26.30
2018-08-04T22:08:56.141Z,26.20
2018-08-04T22:14:01.401Z,26.10
2018-08-04T22:19:07.855Z,26.10
2018-08-04T22:29:19.877Z,26.00
2018-08-04T22:34:24.244Z,25.90
2018-08-04T22:39:31.082Z,25.80
2018-08-04T22:44:44.415Z,25.80
2018-08-04T22:49:50.189Z,25.70
2018-08-04T22:54:56.301Z,25.70
2018-08-04T23:05:07.830Z,25.60
2018-08-04T23:10:12.159Z,25.50
2018-08-04T23:15:17.416Z,25.40
2018-08-04T23:20:22.599Z,25.40
2018-08-04T23:25:26.943Z,25.30
2018-08-04T23:30:34.432Z,25.20
2018-08-04T23:40:51.298Z,25.10
2018-08-04T23:45:57.888Z,25.00
2018-08-04T23:51:06.728Z,25.00
2018-08-04T23:56:15.273Z,24.90
